sensor_id;sensor_type;location;lat;lon;timestamp;temperature;humidity
17893;DHT22;9072;51.918;4.380;2023-08-24T00:02:23;18.80;99.90
17893;DHT22;9072;51.918;4.380;2023-08-24T00:05:07;18.80;99.90
17893;DHT22;9072;51.918;4.380;2023-08-24T00:07:49;18.80;99.90
17893;DHT22;9072;51.918;4.380;2023-08-24T00:10:28;18.80;99.90
17893;DHT22;9072;51.918;4.380;2023-08-24T00:12:59;18.80;99.90
17893;DHT22;9072;51.918;4.380;2023-08-24T00:15:31;18.80;99.90
17893;DHT22;9072;51.918;4.380;2023-08-24T00:18:03;18.80;99.90
17893;DHT22;9072;51.918;4.380;2023-08-24T00:20:44;18.80;99.90
17893;DHT22;9072;51.918;4.380;2023-08-24T00:23:37;18.80;99.90
17893;DHT22;9072;51.918;4.380;2023-08-24T00:26:08;18.80;99.90
17893;DHT22;9072;51.918;4.380;2023-08-24T00:28:49;18.80;99.90
17893;DHT22;9072;51.918;4.380;2023-08-24T00:31:26;18.70;99.90
17893;DHT22;9072;51.918;4.380;2023-08-24T00:33:54;18.70;99.90
17893;DHT22;9072;51.918;4.380;2023-08-24T00:39:28;18.80;99.90
17893;DHT22;9072;51.918;4.380;2023-08-24T00:42:06;18.80;99.90
17893;DHT22;9072;51.918;4.380;2023-08-24T00:47:04;18.80;99.90
17893;DHT22;9072;51.918;4.380;2023-08-24T00:47:47;18.90;99.90
17893;DHT22;9072;51.918;4.380;2023-08-24T00:50:25;18.90;99.90
17893;DHT22;9072;51.918;4.380;2023-08-24T00:52:56;18.90;99.90
17893;DHT22;9072;51.918;4.380;2023-08-24T00:55:27;18.90;99.90
17893;DHT22;9072;51.918;4.380;2023-08-24T00:57:59;18.90;99.90
17893;DHT22;9072;51.918;4.380;2023-08-24T01:00:28;18.90;99.90
17893;DHT22;9072;51.918;4.380;2023-08-24T01:02:57;18.90;99.90
17893;DHT22;9072;51.918;4.380;2023-08-24T01:05:26;18.90;99.90
17893;DHT22;9072;51.918;4.380;2023-08-24T01:08:00;18.90;99.90
17893;DHT22;9072;51.918;4.380;2023-08-24T01:11:06;18.80;99.90
17893;DHT22;9072;51.918;4.380;2023-08-24T01:13:50;18.80;99.90
17893;DHT22;9072;51.918;4.380;2023-08-24T01:16:31;18.80;99.90
17893;DHT22;9072;51.918;4.380;2023-08-24T01:19:07;18.80;99.90
17893;DHT22;9072;51.918;4.380;2023-08-24T01:21:55;18.80;99.90
17893;DHT22;9072;51.918;4.380;2023-08-24T01:24:35;18.80;99.90
17893;DHT22;9072;51.918;4.380;2023-08-24T01:27:05;18.80;99.90
17893;DHT22;9072;51.918;4.380;2023-08-24T01:29:36;18.80;99.90
17893;DHT22;9072;51.918;4.380;2023-08-24T01:32:10;18.80;99.90
17893;DHT22;9072;51.918;4.380;2023-08-24T01:34:38;18.70;99.90
17893;DHT22;9072;51.918;4.380;2023-08-24T01:37:06;18.70;99.90
17893;DHT22;9072;51.918;4.380;2023-08-24T01:39:42;18.60;99.90
17893;DHT22;9072;51.918;4.380;2023-08-24T01:42:22;18.60;99.90
17893;DHT22;9072;51.918;4.380;2023-08-24T01:45:09;18.40;99.90
17893;DHT22;9072;51.918;4.380;2023-08-24T01:47:53;18.30;99.90
17893;DHT22;9072;51.918;4.380;2023-08-24T01:50:25;18.20;99.90
17893;DHT22;9072;51.918;4.380;2023-08-24T01:52:59;18.10;99.90
17893;DHT22;9072;51.918;4.380;2023-08-24T01:55:42;18.00;99.90
17893;DHT22;9072;51.918;4.380;2023-08-24T01:58:30;17.90;99.90
17893;DHT22;9072;51.918;4.380;2023-08-24T02:01:15;17.80;99.90
17893;DHT22;9072;51.918;4.380;2023-08-24T02:03:54;17.80;99.90
17893;DHT22;9072;51.918;4.380;2023-08-24T02:06:27;17.80;99.90
17893;DHT22;9072;51.918;4.380;2023-08-24T02:09:07;17.80;99.90
17893;DHT22;9072;51.918;4.380;2023-08-24T02:11:41;17.80;99.90
17893;DHT22;9072;51.918;4.380;2023-08-24T02:14:17;17.70;99.90
17893;DHT22;9072;51.918;4.380;2023-08-24T02:16:53;17.70;99.90
17893;DHT22;9072;51.918;4.380;2023-08-24T02:19:31;17.70;99.90
17893;DHT22;9072;51.918;4.380;2023-08-24T02:22:03;17.70;99.90
17893;DHT22;9072;51.918;4.380;2023-08-24T02:24:33;17.70;99.90
17893;DHT22;9072;51.918;4.380;2023-08-24T02:27:06;17.70;99.90
17893;DHT22;9072;51.918;4.380;2023-08-24T02:30:14;17.70;99.90
17893;DHT22;9072;51.918;4.380;2023-08-24T02:33:07;17.60;99.90
17893;DHT22;9072;51.918;4.380;2023-08-24T02:35:41;17.60;99.90
17893;DHT22;9072;51.918;4.380;2023-08-24T02:38:10;17.70;99.90
17893;DHT22;9072;51.918;4.380;2023-08-24T02:41:06;17.70;99.90
17893;DHT22;9072;51.918;4.380;2023-08-24T02:43:47;17.80;99.90
17893;DHT22;9072;51.918;4.380;2023-08-24T02:46:20;17.80;99.90
17893;DHT22;9072;51.918;4.380;2023-08-24T02:48:52;17.80;99.90
17893;DHT22;9072;51.918;4.380;2023-08-24T02:51:22;17.80;99.90
17893;DHT22;9072;51.918;4.380;2023-08-24T02:54:12;17.80;99.90
17893;DHT22;9072;51.918;4.380;2023-08-24T02:59:22;17.80;99.90
17893;DHT22;9072;51.918;4.380;2023-08-24T03:02:07;17.80;99.90
17893;DHT22;9072;51.918;4.380;2023-08-24T03:04:44;17.90;99.90
17893;DHT22;9072;51.918;4.380;2023-08-24T03:07:26;17.90;99.90
17893;DHT22;9072;51.918;4.380;2023-08-24T03:10:14;17.90;99.90
17893;DHT22;9072;51.918;4.380;2023-08-24T03:12:52;17.90;99.90
17893;DHT22;9072;51.918;4.380;2023-08-24T03:15:31;18.00;99.90
17893;DHT22;9072;51.918;4.380;2023-08-24T03:21:09;18.00;99.90
17893;DHT22;9072;51.918;4.380;2023-08-24T03:23:43;18.00;99.90
17893;DHT22;9072;51.918;4.380;2023-08-24T03:26:30;18.00;99.90
17893;DHT22;9072;51.918;4.380;2023-08-24T03:29:03;18.00;99.90
17893;DHT22;9072;51.918;4.380;2023-08-24T03:31:42;18.10;99.90
17893;DHT22;9072;51.918;4.380;2023-08-24T03:34:12;18.00;99.90
17893;DHT22;9072;51.918;4.380;2023-08-24T03:37:08;18.00;99.90
17893;DHT22;9072;51.918;4.380;2023-08-24T03:39:49;18.00;99.90
17893;DHT22;9072;51.918;4.380;2023-08-24T03:42:17;18.00;99.90
17893;DHT22;9072;51.918;4.380;2023-08-24T03:44:46;18.10;99.90
17893;DHT22;9072;51.918;4.380;2023-08-24T03:47:18;18.10;99.90
17893;DHT22;9072;51.918;4.380;2023-08-24T03:49:58;18.10;99.90
17893;DHT22;9072;51.918;4.380;2023-08-24T03:52:39;18.10;99.90
17893;DHT22;9072;51.918;4.380;2023-08-24T03:55:22;18.10;99.90
17893;DHT22;9072;51.918;4.380;2023-08-24T03:57:54;18.10;99.90
17893;DHT22;9072;51.918;4.380;2023-08-24T04:00:30;18.10;99.90
17893;DHT22;9072;51.918;4.380;2023-08-24T04:03:10;18.10;99.90
17893;DHT22;9072;51.918;4.380;2023-08-24T04:06:17;18.10;99.90
17893;DHT22;9072;51.918;4.380;2023-08-24T04:09:11;18.20;99.90
17893;DHT22;9072;51.918;4.380;2023-08-24T04:12:00;18.20;99.90
17893;DHT22;9072;51.918;4.380;2023-08-24T04:14:30;18.20;99.90
17893;DHT22;9072;51.918;4.380;2023-08-24T04:17:13;18.20;99.90
17893;DHT22;9072;51.918;4.380;2023-08-24T04:20:14;18.20;99.90
17893;DHT22;9072;51.918;4.380;2023-08-24T04:23:25;18.20;99.90
17893;DHT22;9072;51.918;4.380;2023-08-24T04:29:35;18.20;99.90
17893;DHT22;9072;51.918;4.380;2023-08-24T04:32:42;18.30;99.90
17893;DHT22;9072;51.918;4.380;2023-08-24T04:38:23;18.30;99.90
17893;DHT22;9072;51.918;4.380;2023-08-24T04:41:00;18.30;99.90
17893;DHT22;9072;51.918;4.380;2023-08-24T04:43:48;18.30;99.90
17893;DHT22;9072;51.918;4.380;2023-08-24T04:46:36;18.30;99.90
17893;DHT22;9072;51.918;4.380;2023-08-24T04:49:18;18.30;99.90
17893;DHT22;9072;51.918;4.380;2023-08-24T04:52:00;18.30;99.90
17893;DHT22;9072;51.918;4.380;2023-08-24T04:54:29;18.30;99.90
17893;DHT22;9072;51.918;4.380;2023-08-24T05:00:12;18.30;99.90
17893;DHT22;9072;51.918;4.380;2023-08-24T05:06:00;18.40;99.90
17893;DHT22;9072;51.918;4.380;2023-08-24T05:08:35;18.50;99.90
17893;DHT22;9072;51.918;4.380;2023-08-24T05:11:16;18.50;99.90
17893;DHT22;9072;51.918;4.380;2023-08-24T05:14:13;18.60;99.90
17893;DHT22;9072;51.918;4.380;2023-08-24T05:16:56;18.60;99.90
17893;DHT22;9072;51.918;4.380;2023-08-24T05:20:07;18.70;99.90
17893;DHT22;9072;51.918;4.380;2023-08-24T05:23:04;18.70;99.90
17893;DHT22;9072;51.918;4.380;2023-08-24T05:29:09;18.90;99.90
17893;DHT22;9072;51.918;4.380;2023-08-24T05:32:31;18.90;99.90
17893;DHT22;9072;51.918;4.380;2023-08-24T05:35:45;19.00;99.90
17893;DHT22;9072;51.918;4.380;2023-08-24T05:45:31;19.30;99.90
17893;DHT22;9072;51.918;4.380;2023-08-24T05:48:24;19.40;99.90
17893;DHT22;9072;51.918;4.380;2023-08-24T05:51:33;19.40;99.90
17893;DHT22;9072;51.918;4.380;2023-08-24T05:54:42;19.40;99.90
17893;DHT22;9072;51.918;4.380;2023-08-24T06:00:50;19.50;99.90
17893;DHT22;9072;51.918;4.380;2023-08-24T06:04:00;19.50;99.90
17893;DHT22;9072;51.918;4.380;2023-08-24T06:07:14;19.60;99.90
17893;DHT22;9072;51.918;4.380;2023-08-24T06:10:07;19.60;99.90
17893;DHT22;9072;51.918;4.380;2023-08-24T06:14:07;19.60;99.90
17893;DHT22;9072;51.918;4.380;2023-08-24T06:16:49;19.70;99.90
17893;DHT22;9072;51.918;4.380;2023-08-24T06:21:33;19.80;99.90
17893;DHT22;9072;51.918;4.380;2023-08-24T06:22:43;19.80;99.90
17893;DHT22;9072;51.918;4.380;2023-08-24T06:25:30;19.90;99.90
17893;DHT22;9072;51.918;4.380;2023-08-24T06:31:38;19.90;99.90
17893;DHT22;9072;51.918;4.380;2023-08-24T06:37:57;20.10;99.90
17893;DHT22;9072;51.918;4.380;2023-08-24T06:40:58;20.10;99.90
17893;DHT22;9072;51.918;4.380;2023-08-24T06:45:02;20.10;99.90
17893;DHT22;9072;51.918;4.380;2023-08-24T06:50:25;20.20;99.90
17893;DHT22;9072;51.918;4.380;2023-08-24T06:53:03;20.30;99.90
17893;DHT22;9072;51.918;4.380;2023-08-24T06:55:41;20.30;99.90
17893;DHT22;9072;51.918;4.380;2023-08-24T06:58:27;20.40;99.90
17893;DHT22;9072;51.918;4.380;2023-08-24T07:00:57;20.50;99.90
17893;DHT22;9072;51.918;4.380;2023-08-24T07:03:56;20.60;99.90
17893;DHT22;9072;51.918;4.380;2023-08-24T07:06:31;20.70;99.90
17893;DHT22;9072;51.918;4.380;2023-08-24T07:12:53;20.80;99.90
17893;DHT22;9072;51.918;4.380;2023-08-24T07:15:37;21.00;99.90
17893;DHT22;9072;51.918;4.380;2023-08-24T07:18:11;21.20;99.90
17893;DHT22;9072;51.918;4.380;2023-08-24T07:21:03;21.40;99.90
17893;DHT22;9072;51.918;4.380;2023-08-24T07:23:37;21.70;99.90
17893;DHT22;9072;51.918;4.380;2023-08-24T07:26:23;21.90;99.90
17893;DHT22;9072;51.918;4.380;2023-08-24T07:28:57;22.00;99.90
17893;DHT22;9072;51.918;4.380;2023-08-24T07:31:32;22.20;99.90
17893;DHT22;9072;51.918;4.380;2023-08-24T07:34:21;22.40;99.90
17893;DHT22;9072;51.918;4.380;2023-08-24T07:37:03;22.50;99.90
17893;DHT22;9072;51.918;4.380;2023-08-24T07:40:20;22.80;99.90
17893;DHT22;9072;51.918;4.380;2023-08-24T07:42:48;22.90;99.90
17893;DHT22;9072;51.918;4.380;2023-08-24T07:45:41;23.20;99.90
17893;DHT22;9072;51.918;4.380;2023-08-24T07:48:20;23.30;99.90
17893;DHT22;9072;51.918;4.380;2023-08-24T07:51:04;23.40;99.90
17893;DHT22;9072;51.918;4.380;2023-08-24T07:54:28;23.50;99.90
17893;DHT22;9072;51.918;4.380;2023-08-24T07:57:34;23.60;99.90
17893;DHT22;9072;51.918;4.380;2023-08-24T08:00:27;23.50;99.90
17893;DHT22;9072;51.918;4.380;2023-08-24T08:03:10;23.60;99.90
17893;DHT22;9072;51.918;4.380;2023-08-24T08:06:50;23.70;99.90
17893;DHT22;9072;51.918;4.380;2023-08-24T08:09:22;23.80;99.90
17893;DHT22;9072;51.918;4.380;2023-08-24T08:11:50;23.70;99.90
17893;DHT22;9072;51.918;4.380;2023-08-24T08:14:35;23.60;99.90
17893;DHT22;9072;51.918;4.380;2023-08-24T08:17:15;23.50;99.90
17893;DHT22;9072;51.918;4.380;2023-08-24T08:19:57;23.40;99.90
17893;DHT22;9072;51.918;4.380;2023-08-24T08:22:36;23.40;99.90
17893;DHT22;9072;51.918;4.380;2023-08-24T08:27:54;23.40;99.90
17893;DHT22;9072;51.918;4.380;2023-08-24T08:30:39;23.40;99.90
17893;DHT22;9072;51.918;4.380;2023-08-24T08:33:10;23.30;99.90
17893;DHT22;9072;51.918;4.380;2023-08-24T08:35:54;23.30;99.90
17893;DHT22;9072;51.918;4.380;2023-08-24T08:38:40;23.30;99.90
17893;DHT22;9072;51.918;4.380;2023-08-24T08:41:14;23.30;99.90
17893;DHT22;9072;51.918;4.380;2023-08-24T08:43:57;23.40;99.90
17893;DHT22;9072;51.918;4.380;2023-08-24T08:46:31;23.40;99.90
17893;DHT22;9072;51.918;4.380;2023-08-24T08:49:10;23.50;99.90
17893;DHT22;9072;51.918;4.380;2023-08-24T08:52:01;23.70;99.90
17893;DHT22;9072;51.918;4.380;2023-08-24T08:54:31;23.80;99.90
17893;DHT22;9072;51.918;4.380;2023-08-24T08:57:13;23.80;99.90
17893;DHT22;9072;51.918;4.380;2023-08-24T09:01:21;24.00;99.90
17893;DHT22;9072;51.918;4.380;2023-08-24T09:02:39;24.00;99.90
17893;DHT22;9072;51.918;4.380;2023-08-24T09:05:11;24.20;99.90
17893;DHT22;9072;51.918;4.380;2023-08-24T09:07:41;24.20;99.90
17893;DHT22;9072;51.918;4.380;2023-08-24T09:10:11;24.30;99.90
17893;DHT22;9072;51.918;4.380;2023-08-24T09:12:42;24.40;99.90
17893;DHT22;9072;51.918;4.380;2023-08-24T09:15:10;24.30;99.90
17893;DHT22;9072;51.918;4.380;2023-08-24T09:17:44;24.30;99.90
17893;DHT22;9072;51.918;4.380;2023-08-24T09:20:14;24.30;99.90
17893;DHT22;9072;51.918;4.380;2023-08-24T09:22:49;24.20;99.90
17893;DHT22;9072;51.918;4.380;2023-08-24T09:25:25;24.20;99.90
17893;DHT22;9072;51.918;4.380;2023-08-24T09:28:03;24.20;99.90
17893;DHT22;9072;51.918;4.380;2023-08-24T09:30:34;24.20;99.90
17893;DHT22;9072;51.918;4.380;2023-08-24T09:33:18;24.10;99.90
17893;DHT22;9072;51.918;4.380;2023-08-24T09:36:05;24.10;99.90
17893;DHT22;9072;51.918;4.380;2023-08-24T09:39:06;24.10;99.90
17893;DHT22;9072;51.918;4.380;2023-08-24T09:42:11;24.10;99.90
17893;DHT22;9072;51.918;4.380;2023-08-24T09:45:08;24.00;99.90
17893;DHT22;9072;51.918;4.380;2023-08-24T09:47:59;23.90;99.90
17893;DHT22;9072;51.918;4.380;2023-08-24T09:54:15;23.50;99.90
17893;DHT22;9072;51.918;4.380;2023-08-24T09:57:18;23.20;99.90
17893;DHT22;9072;51.918;4.380;2023-08-24T09:59:56;23.10;99.90
17893;DHT22;9072;51.918;4.380;2023-08-24T10:03:03;23.00;99.90
17893;DHT22;9072;51.918;4.380;2023-08-24T10:05:53;22.90;99.90
17893;DHT22;9072;51.918;4.380;2023-08-24T10:09:01;22.90;99.90
17893;DHT22;9072;51.918;4.380;2023-08-24T10:15:06;23.00;99.90
17893;DHT22;9072;51.918;4.380;2023-08-24T10:20:00;23.10;99.90
17893;DHT22;9072;51.918;4.380;2023-08-24T10:24:25;23.10;99.90
17893;DHT22;9072;51.918;4.380;2023-08-24T10:27:32;23.20;99.90
17893;DHT22;9072;51.918;4.380;2023-08-24T10:30:50;23.20;99.90
17893;DHT22;9072;51.918;4.380;2023-08-24T10:33:43;23.20;99.90
17893;DHT22;9072;51.918;4.380;2023-08-24T10:39:56;23.20;99.90
17893;DHT22;9072;51.918;4.380;2023-08-24T10:44:53;23.40;99.90
17893;DHT22;9072;51.918;4.380;2023-08-24T10:46:45;23.60;99.90
17893;DHT22;9072;51.918;4.380;2023-08-24T10:50:05;23.90;99.90
17893;DHT22;9072;51.918;4.380;2023-08-24T11:02:41;24.50;99.90
17893;DHT22;9072;51.918;4.380;2023-08-24T11:05:53;24.60;99.90
17893;DHT22;9072;51.918;4.380;2023-08-24T11:09:44;24.70;99.90
17893;DHT22;9072;51.918;4.380;2023-08-24T11:15:36;24.90;99.90
17893;DHT22;9072;51.918;4.380;2023-08-24T11:18:48;25.30;99.90
17893;DHT22;9072;51.918;4.380;2023-08-24T11:21:44;26.20;99.90
17893;DHT22;9072;51.918;4.380;2023-08-24T11:24:47;27.00;99.90
17893;DHT22;9072;51.918;4.380;2023-08-24T11:28:32;27.60;99.90
17893;DHT22;9072;51.918;4.380;2023-08-24T11:31:05;27.90;99.90
17893;DHT22;9072;51.918;4.380;2023-08-24T11:33:58;27.60;99.90
17893;DHT22;9072;51.918;4.380;2023-08-24T11:36:49;27.40;99.90
17893;DHT22;9072;51.918;4.380;2023-08-24T11:40:18;27.50;99.90
17893;DHT22;9072;51.918;4.380;2023-08-24T11:43:02;27.50;99.90
17893;DHT22;9072;51.918;4.380;2023-08-24T11:45:39;27.10;99.90
17893;DHT22;9072;51.918;4.380;2023-08-24T11:48:26;27.10;99.90
17893;DHT22;9072;51.918;4.380;2023-08-24T11:51:24;27.10;99.90
17893;DHT22;9072;51.918;4.380;2023-08-24T11:54:13;26.90;99.90
17893;DHT22;9072;51.918;4.380;2023-08-24T11:56:59;26.90;99.90
17893;DHT22;9072;51.918;4.380;2023-08-24T12:02:20;26.50;99.90
17893;DHT22;9072;51.918;4.380;2023-08-24T12:04:52;26.70;99.90
17893;DHT22;9072;51.918;4.380;2023-08-24T12:07:40;27.00;99.90
17893;DHT22;9072;51.918;4.380;2023-08-24T12:10:12;27.80;99.90
17893;DHT22;9072;51.918;4.380;2023-08-24T12:13:11;28.50;99.90
17893;DHT22;9072;51.918;4.380;2023-08-24T12:15:54;28.80;99.90
17893;DHT22;9072;51.918;4.380;2023-08-24T12:18:51;29.10;99.90
17893;DHT22;9072;51.918;4.380;2023-08-24T12:22:29;28.60;99.90
17893;DHT22;9072;51.918;4.380;2023-08-24T12:25:13;28.30;99.90
17893;DHT22;9072;51.918;4.380;2023-08-24T12:28:23;28.20;99.90
17893;DHT22;9072;51.918;4.380;2023-08-24T12:31:18;28.10;99.90
17893;DHT22;9072;51.918;4.380;2023-08-24T12:40:42;28.50;99.90
17893;DHT22;9072;51.918;4.380;2023-08-24T12:45:15;28.50;99.90
17893;DHT22;9072;51.918;4.380;2023-08-24T12:47:03;28.70;99.90
17893;DHT22;9072;51.918;4.380;2023-08-24T12:49:55;28.10;99.90
17893;DHT22;9072;51.918;4.380;2023-08-24T12:52:56;28.00;99.90
17893;DHT22;9072;51.918;4.380;2023-08-24T12:56:21;27.90;99.90
17893;DHT22;9072;51.918;4.380;2023-08-24T12:59:25;28.30;99.90
17893;DHT22;9072;51.918;4.380;2023-08-24T13:02:37;28.40;99.90
17893;DHT22;9072;51.918;4.380;2023-08-24T13:05:35;28.40;99.90
17893;DHT22;9072;51.918;4.380;2023-08-24T13:08:13;28.30;99.90
17893;DHT22;9072;51.918;4.380;2023-08-24T13:10:44;28.30;99.90
17893;DHT22;9072;51.918;4.380;2023-08-24T13:13:14;28.10;99.90
17893;DHT22;9072;51.918;4.380;2023-08-24T13:15:42;28.20;99.90
17893;DHT22;9072;51.918;4.380;2023-08-24T13:18:09;28.40;99.90
17893;DHT22;9072;51.918;4.380;2023-08-24T13:20:38;28.50;99.90
17893;DHT22;9072;51.918;4.380;2023-08-24T13:23:06;28.30;99.90
17893;DHT22;9072;51.918;4.380;2023-08-24T13:25:36;28.40;99.90
17893;DHT22;9072;51.918;4.380;2023-08-24T13:28:04;28.20;99.90
17893;DHT22;9072;51.918;4.380;2023-08-24T13:30:33;27.90;99.90
17893;DHT22;9072;51.918;4.380;2023-08-24T13:33:00;27.80;99.90
17893;DHT22;9072;51.918;4.380;2023-08-24T13:35:30;27.60;99.90
17893;DHT22;9072;51.918;4.380;2023-08-24T13:37:59;27.40;99.90
17893;DHT22;9072;51.918;4.380;2023-08-24T13:40:26;27.10;99.90
17893;DHT22;9072;51.918;4.380;2023-08-24T13:42:53;27.00;99.90
17893;DHT22;9072;51.918;4.380;2023-08-24T13:45:22;26.90;99.90
17893;DHT22;9072;51.918;4.380;2023-08-24T13:47:56;26.70;99.90
17893;DHT22;9072;51.918;4.380;2023-08-24T13:50:23;26.70;99.90
17893;DHT22;9072;51.918;4.380;2023-08-24T13:52:50;26.70;99.90
17893;DHT22;9072;51.918;4.380;2023-08-24T13:55:18;26.80;99.90
17893;DHT22;9072;51.918;4.380;2023-08-24T13:57:45;27.00;99.90
17893;DHT22;9072;51.918;4.380;2023-08-24T14:00:13;27.20;99.90
17893;DHT22;9072;51.918;4.380;2023-08-24T14:02:42;27.20;99.90
17893;DHT22;9072;51.918;4.380;2023-08-24T14:05:15;27.10;99.90
17893;DHT22;9072;51.918;4.380;2023-08-24T14:07:42;27.00;99.90
17893;DHT22;9072;51.918;4.380;2023-08-24T14:10:12;27.00;99.90
17893;DHT22;9072;51.918;4.380;2023-08-24T14:12:41;26.90;99.90
17893;DHT22;9072;51.918;4.380;2023-08-24T14:15:09;26.80;99.90
17893;DHT22;9072;51.918;4.380;2023-08-24T14:17:39;26.70;99.90
17893;DHT22;9072;51.918;4.380;2023-08-24T14:20:06;26.50;99.90
17893;DHT22;9072;51.918;4.380;2023-08-24T14:22:36;26.50;99.90
17893;DHT22;9072;51.918;4.380;2023-08-24T14:25:04;26.50;99.90
17893;DHT22;9072;51.918;4.380;2023-08-24T14:27:31;26.40;99.90
17893;DHT22;9072;51.918;4.380;2023-08-24T14:29:59;26.50;99.90
17893;DHT22;9072;51.918;4.380;2023-08-24T14:32:29;26.50;99.90
17893;DHT22;9072;51.918;4.380;2023-08-24T14:34:56;26.50;99.90
17893;DHT22;9072;51.918;4.380;2023-08-24T14:37:24;26.50;99.90
17893;DHT22;9072;51.918;4.380;2023-08-24T14:39:54;26.50;99.90
17893;DHT22;9072;51.918;4.380;2023-08-24T14:42:21;26.70;99.90
17893;DHT22;9072;51.918;4.380;2023-08-24T14:44:49;26.60;99.90
17893;DHT22;9072;51.918;4.380;2023-08-24T14:47:16;26.70;99.90
17893;DHT22;9072;51.918;4.380;2023-08-24T14:49:49;26.70;99.90
17893;DHT22;9072;51.918;4.380;2023-08-24T14:52:20;26.80;99.90
17893;DHT22;9072;51.918;4.380;2023-08-24T14:54:47;26.80;99.90
17893;DHT22;9072;51.918;4.380;2023-08-24T14:57:19;26.90;99.90
17893;DHT22;9072;51.918;4.380;2023-08-24T14:59:46;27.00;99.90
17893;DHT22;9072;51.918;4.380;2023-08-24T15:02:15;27.00;99.90
17893;DHT22;9072;51.918;4.380;2023-08-24T15:04:43;27.10;99.90
17893;DHT22;9072;51.918;4.380;2023-08-24T15:07:10;27.10;99.90
17893;DHT22;9072;51.918;4.380;2023-08-24T15:09:37;27.00;99.90
17893;DHT22;9072;51.918;4.380;2023-08-24T15:12:05;26.90;99.90
17893;DHT22;9072;51.918;4.380;2023-08-24T15:14:34;26.80;99.90
17893;DHT22;9072;51.918;4.380;2023-08-24T15:17:01;26.70;99.90
17893;DHT22;9072;51.918;4.380;2023-08-24T15:19:29;26.50;99.90
17893;DHT22;9072;51.918;4.380;2023-08-24T15:21:57;26.40;99.90
17893;DHT22;9072;51.918;4.380;2023-08-24T15:24:24;26.30;99.90
17893;DHT22;9072;51.918;4.380;2023-08-24T15:26:53;26.20;99.90
17893;DHT22;9072;51.918;4.380;2023-08-24T15:29:22;26.00;99.90
17893;DHT22;9072;51.918;4.380;2023-08-24T15:31:51;25.80;99.90
17893;DHT22;9072;51.918;4.380;2023-08-24T15:34:22;25.70;99.90
17893;DHT22;9072;51.918;4.380;2023-08-24T15:36:49;25.70;99.90
17893;DHT22;9072;51.918;4.380;2023-08-24T15:39:18;25.70;99.90
17893;DHT22;9072;51.918;4.380;2023-08-24T15:41:46;25.80;99.90
17893;DHT22;9072;51.918;4.380;2023-08-24T15:44:13;25.90;99.90
17893;DHT22;9072;51.918;4.380;2023-08-24T15:46:40;25.90;99.90
17893;DHT22;9072;51.918;4.380;2023-08-24T15:49:08;25.80;99.90
17893;DHT22;9072;51.918;4.380;2023-08-24T15:51:39;25.60;99.90
17893;DHT22;9072;51.918;4.380;2023-08-24T15:54:06;25.60;99.90
17893;DHT22;9072;51.918;4.380;2023-08-24T15:56:33;25.50;99.90
17893;DHT22;9072;51.918;4.380;2023-08-24T15:59:00;25.30;99.90
17893;DHT22;9072;51.918;4.380;2023-08-24T16:01:27;25.10;99.90
17893;DHT22;9072;51.918;4.380;2023-08-24T16:03:54;25.00;99.90
17893;DHT22;9072;51.918;4.380;2023-08-24T16:06:23;25.00;99.90
17893;DHT22;9072;51.918;4.380;2023-08-24T16:08:53;24.90;99.90
17893;DHT22;9072;51.918;4.380;2023-08-24T16:11:21;25.00;99.90
17893;DHT22;9072;51.918;4.380;2023-08-24T16:13:50;25.00;99.90
17893;DHT22;9072;51.918;4.380;2023-08-24T16:16:17;25.00;99.90
17893;DHT22;9072;51.918;4.380;2023-08-24T16:18:49;25.00;99.90
17893;DHT22;9072;51.918;4.380;2023-08-24T16:21:17;24.90;99.90
17893;DHT22;9072;51.918;4.380;2023-08-24T16:23:45;25.00;99.90
17893;DHT22;9072;51.918;4.380;2023-08-24T16:26:12;25.10;99.90
17893;DHT22;9072;51.918;4.380;2023-08-24T16:28:39;25.10;99.90
17893;DHT22;9072;51.918;4.380;2023-08-24T16:31:06;25.10;99.90
17893;DHT22;9072;51.918;4.380;2023-08-24T16:33:34;25.10;99.90
17893;DHT22;9072;51.918;4.380;2023-08-24T16:36:01;25.00;99.90
17893;DHT22;9072;51.918;4.380;2023-08-24T16:38:28;24.90;99.90
17893;DHT22;9072;51.918;4.380;2023-08-24T16:40:57;24.70;99.90
17893;DHT22;9072;51.918;4.380;2023-08-24T16:43:24;24.70;99.90
17893;DHT22;9072;51.918;4.380;2023-08-24T16:45:51;24.60;99.90
17893;DHT22;9072;51.918;4.380;2023-08-24T16:48:18;24.60;99.90
17893;DHT22;9072;51.918;4.380;2023-08-24T16:50:45;24.50;99.90
17893;DHT22;9072;51.918;4.380;2023-08-24T16:53:16;24.50;99.90
17893;DHT22;9072;51.918;4.380;2023-08-24T16:55:44;24.50;99.90
17893;DHT22;9072;51.918;4.380;2023-08-24T16:58:13;24.40;99.90
17893;DHT22;9072;51.918;4.380;2023-08-24T17:00:40;24.40;99.90
17893;DHT22;9072;51.918;4.380;2023-08-24T17:03:07;24.30;99.90
17893;DHT22;9072;51.918;4.380;2023-08-24T17:05:35;24.20;99.90
17893;DHT22;9072;51.918;4.380;2023-08-24T17:08:04;24.20;99.90
17893;DHT22;9072;51.918;4.380;2023-08-24T17:10:33;24.10;99.90
17893;DHT22;9072;51.918;4.380;2023-08-24T17:13:00;24.10;99.90
17893;DHT22;9072;51.918;4.380;2023-08-24T17:15:29;23.90;99.90
17893;DHT22;9072;51.918;4.380;2023-08-24T17:17:57;23.80;99.90
17893;DHT22;9072;51.918;4.380;2023-08-24T17:20:24;23.70;99.90
17893;DHT22;9072;51.918;4.380;2023-08-24T17:22:52;23.60;99.90
17893;DHT22;9072;51.918;4.380;2023-08-24T17:25:19;23.60;99.90
17893;DHT22;9072;51.918;4.380;2023-08-24T17:27:46;23.60;99.90
17893;DHT22;9072;51.918;4.380;2023-08-24T17:30:15;23.50;99.90
17893;DHT22;9072;51.918;4.380;2023-08-24T17:32:44;23.50;99.90
17893;DHT22;9072;51.918;4.380;2023-08-24T17:35:14;23.50;99.90
17893;DHT22;9072;51.918;4.380;2023-08-24T17:37:42;23.50;99.90
17893;DHT22;9072;51.918;4.380;2023-08-24T17:40:10;23.40;99.90
17893;DHT22;9072;51.918;4.380;2023-08-24T17:42:39;23.40;99.90
17893;DHT22;9072;51.918;4.380;2023-08-24T17:45:08;23.40;99.90
17893;DHT22;9072;51.918;4.380;2023-08-24T17:47:36;23.30;99.90
17893;DHT22;9072;51.918;4.380;2023-08-24T17:50:14;23.30;99.90
17893;DHT22;9072;51.918;4.380;2023-08-24T17:52:41;23.20;99.90
17893;DHT22;9072;51.918;4.380;2023-08-24T17:55:09;23.20;99.90
17893;DHT22;9072;51.918;4.380;2023-08-24T17:57:36;23.20;99.90
17893;DHT22;9072;51.918;4.380;2023-08-24T18:00:05;23.10;99.90
17893;DHT22;9072;51.918;4.380;2023-08-24T18:02:37;23.10;99.90
17893;DHT22;9072;51.918;4.380;2023-08-24T18:05:09;23.10;99.90
17893;DHT22;9072;51.918;4.380;2023-08-24T18:07:37;23.00;99.90
17893;DHT22;9072;51.918;4.380;2023-08-24T18:10:08;23.00;99.90
17893;DHT22;9072;51.918;4.380;2023-08-24T18:12:36;22.90;99.90
17893;DHT22;9072;51.918;4.380;2023-08-24T18:15:06;22.90;99.90
17893;DHT22;9072;51.918;4.380;2023-08-24T18:17:33;22.90;99.90
17893;DHT22;9072;51.918;4.380;2023-08-24T18:20:00;22.90;99.90
17893;DHT22;9072;51.918;4.380;2023-08-24T18:22:31;22.80;99.90
17893;DHT22;9072;51.918;4.380;2023-08-24T18:24:58;22.80;99.90
17893;DHT22;9072;51.918;4.380;2023-08-24T18:27:26;22.80;99.90
17893;DHT22;9072;51.918;4.380;2023-08-24T18:29:56;22.70;99.90
17893;DHT22;9072;51.918;4.380;2023-08-24T18:32:24;22.70;99.90
17893;DHT22;9072;51.918;4.380;2023-08-24T18:34:53;22.60;99.90
17893;DHT22;9072;51.918;4.380;2023-08-24T18:37:23;22.40;99.90